sensor_id;sensor_type;location;lat;lon;timestamp;P1;durP1;ratioP1;P2;durP2;ratioP2
4122;SDS011;2075;51.062;6.920;2023-07-31T00:00:56;9.23;;;3.90;;
4122;SDS011;2075;51.062;6.920;2023-07-31T00:03:42;5.60;;;3.50;;
4122;SDS011;2075;51.062;6.920;2023-07-31T00:06:28;5.43;;;3.97;;
4122;SDS011;2075;51.062;6.920;2023-07-31T00:09:13;5.80;;;3.50;;
4122;SDS011;2075;51.062;6.920;2023-07-31T00:11:59;8.67;;;3.87;;
4122;SDS011;2075;51.062;6.920;2023-07-31T00:14:44;7.30;;;4.30;;
4122;SDS011;2075;51.062;6.920;2023-07-31T00:17:30;4.97;;;3.60;;
4122;SDS011;2075;51.062;6.920;2023-07-31T00:20:15;9.47;;;4.37;;
4122;SDS011;2075;51.062;6.920;2023-07-31T00:23:02;8.30;;;3.70;;
4122;SDS011;2075;51.062;6.920;2023-07-31T00:25:47;7.07;;;4.07;;
4122;SDS011;2075;51.062;6.920;2023-07-31T00:28:33;4.50;;;3.73;;
4122;SDS011;2075;51.062;6.920;2023-07-31T00:31:18;10.13;;;4.20;;
4122;SDS011;2075;51.062;6.920;2023-07-31T00:34:05;8.30;;;3.50;;
4122;SDS011;2075;51.062;6.920;2023-07-31T00:36:53;8.30;;;4.00;;
4122;SDS011;2075;51.062;6.920;2023-07-31T00:39:40;6.87;;;3.87;;
4122;SDS011;2075;51.062;6.920;2023-07-31T00:42:25;7.60;;;3.87;;
4122;SDS011;2075;51.062;6.920;2023-07-31T00:45:11;9.50;;;4.40;;
4122;SDS011;2075;51.062;6.920;2023-07-31T00:47:56;8.27;;;3.77;;
4122;SDS011;2075;51.062;6.920;2023-07-31T00:50:41;9.43;;;3.57;;
4122;SDS011;2075;51.062;6.920;2023-07-31T00:53:27;8.80;;;4.03;;
4122;SDS011;2075;51.062;6.920;2023-07-31T00:56:13;8.10;;;4.00;;
4122;SDS011;2075;51.062;6.920;2023-07-31T00:58:59;7.13;;;3.90;;
4122;SDS011;2075;51.062;6.920;2023-07-31T01:01:44;9.77;;;3.10;;
4122;SDS011;2075;51.062;6.920;2023-07-31T01:04:30;9.93;;;3.70;;
4122;SDS011;2075;51.062;6.920;2023-07-31T01:07:18;16.17;;;4.10;;
4122;SDS011;2075;51.062;6.920;2023-07-31T01:10:11;8.60;;;3.63;;
4122;SDS011;2075;51.062;6.920;2023-07-31T01:13:02;6.53;;;3.40;;
4122;SDS011;2075;51.062;6.920;2023-07-31T01:15:48;6.80;;;3.33;;
4122;SDS011;2075;51.062;6.920;2023-07-31T01:18:33;9.17;;;3.20;;
4122;SDS011;2075;51.062;6.920;2023-07-31T01:21:22;7.13;;;3.93;;
4122;SDS011;2075;51.062;6.920;2023-07-31T01:24:28;8.83;;;3.70;;
4122;SDS011;2075;51.062;6.920;2023-07-31T01:27:21;10.53;;;3.73;;
4122;SDS011;2075;51.062;6.920;2023-07-31T01:30:10;9.67;;;3.60;;
4122;SDS011;2075;51.062;6.920;2023-07-31T01:33:01;8.87;;;3.80;;
4122;SDS011;2075;51.062;6.920;2023-07-31T01:35:51;8.03;;;4.00;;
4122;SDS011;2075;51.062;6.920;2023-07-31T01:38:37;11.17;;;3.60;;
4122;SDS011;2075;51.062;6.920;2023-07-31T01:41:23;8.23;;;3.93;;
4122;SDS011;2075;51.062;6.920;2023-07-31T01:44:10;5.30;;;3.20;;
4122;SDS011;2075;51.062;6.920;2023-07-31T01:46:55;8.23;;;3.87;;
4122;SDS011;2075;51.062;6.920;2023-07-31T01:49:40;9.53;;;3.73;;
4122;SDS011;2075;51.062;6.920;2023-07-31T01:52:26;8.90;;;3.50;;
4122;SDS011;2075;51.062;6.920;2023-07-31T01:55:12;6.67;;;4.10;;
4122;SDS011;2075;51.062;6.920;2023-07-31T01:57:57;6.73;;;4.20;;
4122;SDS011;2075;51.062;6.920;2023-07-31T02:00:44;9.43;;;3.90;;
4122;SDS011;2075;51.062;6.920;2023-07-31T02:03:30;10.83;;;3.93;;
4122;SDS011;2075;51.062;6.920;2023-07-31T02:06:15;4.43;;;3.20;;
4122;SDS011;2075;51.062;6.920;2023-07-31T02:09:01;7.53;;;3.97;;
4122;SDS011;2075;51.062;6.920;2023-07-31T02:11:49;7.40;;;4.07;;
4122;SDS011;2075;51.062;6.920;2023-07-31T02:14:35;11.13;;;4.00;;
4122;SDS011;2075;51.062;6.920;2023-07-31T02:17:22;9.67;;;3.80;;
4122;SDS011;2075;51.062;6.920;2023-07-31T02:20:07;4.07;;;2.90;;
4122;SDS011;2075;51.062;6.920;2023-07-31T02:22:53;5.80;;;3.80;;
4122;SDS011;2075;51.062;6.920;2023-07-31T02:25:39;7.40;;;3.40;;
4122;SDS011;2075;51.062;6.920;2023-07-31T02:28:24;3.60;;;2.80;;
4122;SDS011;2075;51.062;6.920;2023-07-31T02:31:10;9.03;;;4.00;;
4122;SDS011;2075;51.062;6.920;2023-07-31T02:33:56;11.90;;;3.57;;
4122;SDS011;2075;51.062;6.920;2023-07-31T02:36:42;6.73;;;3.27;;
4122;SDS011;2075;51.062;6.920;2023-07-31T02:39:27;11.43;;;3.67;;
4122;SDS011;2075;51.062;6.920;2023-07-31T02:42:12;5.77;;;3.63;;
4122;SDS011;2075;51.062;6.920;2023-07-31T02:44:58;5.30;;;3.47;;
4122;SDS011;2075;51.062;6.920;2023-07-31T02:47:44;9.33;;;3.97;;
4122;SDS011;2075;51.062;6.920;2023-07-31T02:50:31;15.60;;;3.60;;
4122;SDS011;2075;51.062;6.920;2023-07-31T02:53:17;6.37;;;3.50;;
4122;SDS011;2075;51.062;6.920;2023-07-31T02:56:02;9.03;;;3.60;;
4122;SDS011;2075;51.062;6.920;2023-07-31T02:58:47;11.97;;;4.03;;
4122;SDS011;2075;51.062;6.920;2023-07-31T03:01:33;7.13;;;3.50;;
4122;SDS011;2075;51.062;6.920;2023-07-31T03:04:18;7.17;;;4.13;;
4122;SDS011;2075;51.062;6.920;2023-07-31T03:07:05;7.17;;;4.00;;
4122;SDS011;2075;51.062;6.920;2023-07-31T03:09:51;7.37;;;4.07;;
4122;SDS011;2075;51.062;6.920;2023-07-31T03:12:36;6.33;;;3.60;;
4122;SDS011;2075;51.062;6.920;2023-07-31T03:15:22;11.73;;;3.67;;
4122;SDS011;2075;51.062;6.920;2023-07-31T03:18:07;5.60;;;3.70;;
4122;SDS011;2075;51.062;6.920;2023-07-31T03:20:53;9.90;;;3.67;;
4122;SDS011;2075;51.062;6.920;2023-07-31T03:23:40;9.03;;;4.00;;
4122;SDS011;2075;51.062;6.920;2023-07-31T03:26:27;12.13;;;4.10;;
4122;SDS011;2075;51.062;6.920;2023-07-31T03:29:13;7.23;;;4.00;;
4122;SDS011;2075;51.062;6.920;2023-07-31T03:31:58;9.77;;;4.30;;
4122;SDS011;2075;51.062;6.920;2023-07-31T03:34:45;8.50;;;4.13;;
4122;SDS011;2075;51.062;6.920;2023-07-31T03:37:30;9.17;;;3.40;;
4122;SDS011;2075;51.062;6.920;2023-07-31T03:40:17;16.03;;;3.80;;
4122;SDS011;2075;51.062;6.920;2023-07-31T03:43:02;12.90;;;4.40;;
4122;SDS011;2075;51.062;6.920;2023-07-31T03:45:48;10.40;;;4.23;;
4122;SDS011;2075;51.062;6.920;2023-07-31T03:48:33;7.43;;;3.90;;
4122;SDS011;2075;51.062;6.920;2023-07-31T03:51:19;13.17;;;5.93;;
4122;SDS011;2075;51.062;6.920;2023-07-31T03:54:04;11.17;;;4.77;;
4122;SDS011;2075;51.062;6.920;2023-07-31T03:56:52;10.13;;;4.83;;
4122;SDS011;2075;51.062;6.920;2023-07-31T03:59:37;8.23;;;4.07;;
4122;SDS011;2075;51.062;6.920;2023-07-31T04:02:23;7.07;;;4.80;;
4122;SDS011;2075;51.062;6.920;2023-07-31T04:05:08;11.57;;;4.87;;
4122;SDS011;2075;51.062;6.920;2023-07-31T04:07:54;7.00;;;4.33;;
4122;SDS011;2075;51.062;6.920;2023-07-31T04:10:40;12.37;;;5.30;;
4122;SDS011;2075;51.062;6.920;2023-07-31T04:13:26;10.90;;;4.50;;
4122;SDS011;2075;51.062;6.920;2023-07-31T04:16:13;8.23;;;4.10;;
4122;SDS011;2075;51.062;6.920;2023-07-31T04:18:59;15.70;;;4.60;;
4122;SDS011;2075;51.062;6.920;2023-07-31T04:21:44;12.73;;;4.20;;
4122;SDS011;2075;51.062;6.920;2023-07-31T04:24:29;16.03;;;5.17;;
4122;SDS011;2075;51.062;6.920;2023-07-31T04:27:15;9.47;;;5.20;;
4122;SDS011;2075;51.062;6.920;2023-07-31T04:30:02;13.30;;;8.40;;
4122;SDS011;2075;51.062;6.920;2023-07-31T04:32:48;6.30;;;4.30;;
4122;SDS011;2075;51.062;6.920;2023-07-31T04:35:33;7.43;;;4.90;;
4122;SDS011;2075;51.062;6.920;2023-07-31T04:38:19;7.37;;;4.40;;
4122;SDS011;2075;51.062;6.920;2023-07-31T04:41:04;9.27;;;4.73;;
4122;SDS011;2075;51.062;6.920;2023-07-31T04:43:50;9.13;;;4.87;;
4122;SDS011;2075;51.062;6.920;2023-07-31T04:46:37;9.70;;;5.03;;
4122;SDS011;2075;51.062;6.920;2023-07-31T04:49:22;9.33;;;4.37;;
4122;SDS011;2075;51.062;6.920;2023-07-31T04:52:07;9.90;;;4.70;;
4122;SDS011;2075;51.062;6.920;2023-07-31T04:54:55;8.53;;;4.87;;
4122;SDS011;2075;51.062;6.920;2023-07-31T04:57:40;8.27;;;4.60;;
4122;SDS011;2075;51.062;6.920;2023-07-31T05:00:26;7.47;;;5.00;;
4122;SDS011;2075;51.062;6.920;2023-07-31T05:03:13;5.70;;;4.37;;
4122;SDS011;2075;51.062;6.920;2023-07-31T05:05:58;9.40;;;4.73;;
4122;SDS011;2075;51.062;6.920;2023-07-31T05:08:44;7.13;;;4.50;;
4122;SDS011;2075;51.062;6.920;2023-07-31T05:11:29;8.20;;;5.23;;
4122;SDS011;2075;51.062;6.920;2023-07-31T05:14:15;7.90;;;4.50;;
4122;SDS011;2075;51.062;6.920;2023-07-31T05:17:01;6.13;;;4.17;;
4122;SDS011;2075;51.062;6.920;2023-07-31T05:19:47;8.63;;;4.70;;
4122;SDS011;2075;51.062;6.920;2023-07-31T05:22:33;9.13;;;5.00;;
4122;SDS011;2075;51.062;6.920;2023-07-31T05:25:18;9.20;;;5.37;;
4122;SDS011;2075;51.062;6.920;2023-07-31T05:28:04;7.33;;;4.20;;
4122;SDS011;2075;51.062;6.920;2023-07-31T05:30:49;8.93;;;4.60;;
4122;SDS011;2075;51.062;6.920;2023-07-31T05:33:35;6.40;;;4.50;;
4122;SDS011;2075;51.062;6.920;2023-07-31T05:36:21;7.60;;;4.73;;
4122;SDS011;2075;51.062;6.920;2023-07-31T05:39:07;7.90;;;4.33;;
4122;SDS011;2075;51.062;6.920;2023-07-31T05:41:52;9.07;;;4.00;;
4122;SDS011;2075;51.062;6.920;2023-07-31T05:44:38;5.70;;;4.30;;
4122;SDS011;2075;51.062;6.920;2023-07-31T05:47:23;8.03;;;5.17;;
4122;SDS011;2075;51.062;6.920;2023-07-31T05:50:09;6.90;;;4.10;;
4122;SDS011;2075;51.062;6.920;2023-07-31T05:52:55;6.17;;;4.97;;
4122;SDS011;2075;51.062;6.920;2023-07-31T05:55:40;5.87;;;4.50;;
4122;SDS011;2075;51.062;6.920;2023-07-31T05:58:26;8.10;;;4.70;;
4122;SDS011;2075;51.062;6.920;2023-07-31T06:01:11;7.37;;;4.47;;
4122;SDS011;2075;51.062;6.920;2023-07-31T06:03:57;7.77;;;4.30;;
4122;SDS011;2075;51.062;6.920;2023-07-31T06:06:42;7.23;;;4.37;;
4122;SDS011;2075;51.062;6.920;2023-07-31T06:09:29;9.20;;;4.43;;
4122;SDS011;2075;51.062;6.920;2023-07-31T06:12:15;10.97;;;4.30;;
4122;SDS011;2075;51.062;6.920;2023-07-31T06:15:03;6.73;;;4.50;;
4122;SDS011;2075;51.062;6.920;2023-07-31T06:17:49;6.33;;;3.73;;
4122;SDS011;2075;51.062;6.920;2023-07-31T06:20:35;8.00;;;4.30;;
4122;SDS011;2075;51.062;6.920;2023-07-31T06:23:20;8.10;;;4.70;;
4122;SDS011;2075;51.062;6.920;2023-07-31T06:26:07;9.20;;;4.30;;
4122;SDS011;2075;51.062;6.920;2023-07-31T06:28:53;11.90;;;4.60;;
4122;SDS011;2075;51.062;6.920;2023-07-31T06:31:38;4.50;;;4.10;;
4122;SDS011;2075;51.062;6.920;2023-07-31T06:34:23;10.07;;;4.40;;
4122;SDS011;2075;51.062;6.920;2023-07-31T06:37:09;5.10;;;3.83;;
4122;SDS011;2075;51.062;6.920;2023-07-31T06:39:55;7.27;;;3.83;;
4122;SDS011;2075;51.062;6.920;2023-07-31T06:42:42;10.03;;;4.73;;
4122;SDS011;2075;51.062;6.920;2023-07-31T06:45:27;9.77;;;4.40;;
4122;SDS011;2075;51.062;6.920;2023-07-31T06:48:12;8.37;;;4.43;;
4122;SDS011;2075;51.062;6.920;2023-07-31T06:50:58;8.10;;;4.10;;
4122;SDS011;2075;51.062;6.920;2023-07-31T06:53:44;25.03;;;17.10;;
4122;SDS011;2075;51.062;6.920;2023-07-31T06:56:30;11.20;;;3.77;;
4122;SDS011;2075;51.062;6.920;2023-07-31T06:59:17;5.90;;;3.97;;
4122;SDS011;2075;51.062;6.920;2023-07-31T07:02:02;5.33;;;3.83;;
4122;SDS011;2075;51.062;6.920;2023-07-31T07:04:48;5.47;;;4.27;;
4122;SDS011;2075;51.062;6.920;2023-07-31T07:07:35;6.43;;;3.80;;
4122;SDS011;2075;51.062;6.920;2023-07-31T07:10:22;5.13;;;3.33;;
4122;SDS011;2075;51.062;6.920;2023-07-31T07:13:08;10.40;;;3.60;;
4122;SDS011;2075;51.062;6.920;2023-07-31T07:15:58;6.13;;;3.90;;
4122;SDS011;2075;51.062;6.920;2023-07-31T07:18:44;8.70;;;4.30;;
4122;SDS011;2075;51.062;6.920;2023-07-31T07:21:29;8.87;;;4.87;;
4122;SDS011;2075;51.062;6.920;2023-07-31T07:24:15;6.47;;;4.40;;
4122;SDS011;2075;51.062;6.920;2023-07-31T07:27:00;7.10;;;4.03;;
4122;SDS011;2075;51.062;6.920;2023-07-31T07:29:46;5.60;;;4.20;;
4122;SDS011;2075;51.062;6.920;2023-07-31T07:32:33;6.80;;;3.50;;
4122;SDS011;2075;51.062;6.920;2023-07-31T07:35:18;6.97;;;4.50;;
4122;SDS011;2075;51.062;6.920;2023-07-31T07:38:04;9.40;;;5.23;;
4122;SDS011;2075;51.062;6.920;2023-07-31T07:40:50;14.97;;;10.50;;
4122;SDS011;2075;51.062;6.920;2023-07-31T07:43:37;11.30;;;5.50;;
4122;SDS011;2075;51.062;6.920;2023-07-31T07:46:23;6.87;;;4.60;;
4122;SDS011;2075;51.062;6.920;2023-07-31T07:49:10;7.83;;;4.13;;
4122;SDS011;2075;51.062;6.920;2023-07-31T07:51:55;10.67;;;5.10;;
4122;SDS011;2075;51.062;6.920;2023-07-31T07:54:41;8.80;;;4.57;;
4122;SDS011;2075;51.062;6.920;2023-07-31T07:57:26;8.80;;;5.13;;
4122;SDS011;2075;51.062;6.920;2023-07-31T08:00:12;10.53;;;4.27;;
4122;SDS011;2075;51.062;6.920;2023-07-31T08:03:00;5.17;;;4.00;;
4122;SDS011;2075;51.062;6.920;2023-07-31T08:05:47;12.17;;;3.63;;
4122;SDS011;2075;51.062;6.920;2023-07-31T08:08:33;6.40;;;3.90;;
4122;SDS011;2075;51.062;6.920;2023-07-31T08:11:19;9.23;;;4.10;;
4122;SDS011;2075;51.062;6.920;2023-07-31T08:14:05;6.60;;;4.10;;
4122;SDS011;2075;51.062;6.920;2023-07-31T08:16:51;8.30;;;4.30;;
4122;SDS011;2075;51.062;6.920;2023-07-31T08:19:36;7.90;;;4.10;;
4122;SDS011;2075;51.062;6.920;2023-07-31T08:22:24;3.77;;;3.27;;
4122;SDS011;2075;51.062;6.920;2023-07-31T08:25:09;6.93;;;3.87;;
4122;SDS011;2075;51.062;6.920;2023-07-31T08:27:56;8.83;;;4.00;;
4122;SDS011;2075;51.062;6.920;2023-07-31T08:30:44;4.57;;;3.40;;
4122;SDS011;2075;51.062;6.920;2023-07-31T08:33:30;4.53;;;3.13;;
4122;SDS011;2075;51.062;6.920;2023-07-31T08:36:20;4.57;;;3.00;;
4122;SDS011;2075;51.062;6.920;2023-07-31T08:39:07;3.90;;;3.33;;
4122;SDS011;2075;51.062;6.920;2023-07-31T08:41:57;5.10;;;3.33;;
4122;SDS011;2075;51.062;6.920;2023-07-31T08:44:44;6.60;;;3.33;;
4122;SDS011;2075;51.062;6.920;2023-07-31T08:47:31;8.37;;;3.90;;
4122;SDS011;2075;51.062;6.920;2023-07-31T08:50:17;5.47;;;3.07;;
4122;SDS011;2075;51.062;6.920;2023-07-31T08:53:04;6.77;;;3.67;;
4122;SDS011;2075;51.062;6.920;2023-07-31T08:55:51;10.03;;;3.00;;
4122;SDS011;2075;51.062;6.920;2023-07-31T08:58:38;9.13;;;4.73;;
4122;SDS011;2075;51.062;6.920;2023-07-31T09:01:24;5.03;;;3.70;;
4122;SDS011;2075;51.062;6.920;2023-07-31T09:04:10;5.73;;;3.80;;
4122;SDS011;2075;51.062;6.920;2023-07-31T09:06:59;5.90;;;3.73;;
4122;SDS011;2075;51.062;6.920;2023-07-31T09:09:47;6.47;;;3.43;;
4122;SDS011;2075;51.062;6.920;2023-07-31T09:12:34;12.60;;;6.83;;
4122;SDS011;2075;51.062;6.920;2023-07-31T09:15:21;8.10;;;3.20;;
4122;SDS011;2075;51.062;6.920;2023-07-31T09:18:08;6.83;;;3.20;;
4122;SDS011;2075;51.062;6.920;2023-07-31T09:21:01;3.87;;;3.10;;
4122;SDS011;2075;51.062;6.920;2023-07-31T09:23:47;5.40;;;3.43;;
4122;SDS011;2075;51.062;6.920;2023-07-31T09:26:33;6.87;;;2.87;;
4122;SDS011;2075;51.062;6.920;2023-07-31T09:29:21;5.43;;;3.40;;
4122;SDS011;2075;51.062;6.920;2023-07-31T09:32:09;4.13;;;2.80;;
4122;SDS011;2075;51.062;6.920;2023-07-31T09:35:01;4.50;;;3.17;;
4122;SDS011;2075;51.062;6.920;2023-07-31T09:37:50;4.47;;;3.40;;
4122;SDS011;2075;51.062;6.920;2023-07-31T09:40:37;4.80;;;3.77;;
4122;SDS011;2075;51.062;6.920;2023-07-31T09:43:24;4.80;;;2.90;;
4122;SDS011;2075;51.062;6.920;2023-07-31T09:46:14;5.30;;;3.17;;
4122;SDS011;2075;51.062;6.920;2023-07-31T09:49:03;3.70;;;2.70;;
4122;SDS011;2075;51.062;6.920;2023-07-31T09:51:50;4.47;;;2.80;;
4122;SDS011;2075;51.062;6.920;2023-07-31T09:54:35;3.23;;;2.90;;
4122;SDS011;2075;51.062;6.920;2023-07-31T09:57:21;2.90;;;2.63;;
4122;SDS011;2075;51.062;6.920;2023-07-31T10:00:09;4.03;;;3.20;;
4122;SDS011;2075;51.062;6.920;2023-07-31T10:02:59;3.10;;;2.83;;
4122;SDS011;2075;51.062;6.920;2023-07-31T10:05:46;2.87;;;2.57;;
4122;SDS011;2075;51.062;6.920;2023-07-31T10:08:35;4.63;;;3.30;;
4122;SDS011;2075;51.062;6.920;2023-07-31T10:11:22;4.60;;;3.53;;
4122;SDS011;2075;51.062;6.920;2023-07-31T10:14:12;4.97;;;3.20;;
4122;SDS011;2075;51.062;6.920;2023-07-31T10:16:58;4.97;;;3.80;;
4122;SDS011;2075;51.062;6.920;2023-07-31T10:19:46;6.80;;;3.07;;
4122;SDS011;2075;51.062;6.920;2023-07-31T10:22:32;4.60;;;2.70;;
4122;SDS011;2075;51.062;6.920;2023-07-31T10:25:19;3.80;;;3.50;;
4122;SDS011;2075;51.062;6.920;2023-07-31T10:28:07;4.27;;;3.63;;
4122;SDS011;2075;51.062;6.920;2023-07-31T10:30:55;3.37;;;3.07;;
4122;SDS011;2075;51.062;6.920;2023-07-31T10:33:41;3.67;;;2.80;;
4122;SDS011;2075;51.062;6.920;2023-07-31T10:36:29;5.20;;;3.00;;
4122;SDS011;2075;51.062;6.920;2023-07-31T10:39:34;5.82;;;4.00;;
4122;SDS011;2075;51.062;6.920;2023-07-31T10:42:26;6.10;;;3.50;;
4122;SDS011;2075;51.062;6.920;2023-07-31T10:45:13;3.60;;;3.30;;
4122;SDS011;2075;51.062;6.920;2023-07-31T10:48:12;3.90;;;3.03;;
4122;SDS011;2075;51.062;6.920;2023-07-31T10:50:59;3.63;;;3.00;;
4122;SDS011;2075;51.062;6.920;2023-07-31T10:53:47;4.60;;;3.00;;
4122;SDS011;2075;51.062;6.920;2023-07-31T10:56:37;3.20;;;3.00;;
4122;SDS011;2075;51.062;6.920;2023-07-31T10:59:26;3.90;;;3.10;;
4122;SDS011;2075;51.062;6.920;2023-07-31T11:02:23;4.70;;;2.67;;
4122;SDS011;2075;51.062;6.920;2023-07-31T11:05:10;4.27;;;2.70;;
4122;SDS011;2075;51.062;6.920;2023-07-31T11:07:56;6.07;;;2.20;;
4122;SDS011;2075;51.062;6.920;2023-07-31T11:10:44;3.10;;;2.30;;
4122;SDS011;2075;51.062;6.920;2023-07-31T11:13:30;3.50;;;1.90;;
4122;SDS011;2075;51.062;6.920;2023-07-31T11:16:22;3.07;;;1.80;;
4122;SDS011;2075;51.062;6.920;2023-07-31T11:19:08;2.20;;;2.00;;
4122;SDS011;2075;51.062;6.920;2023-07-31T11:21:54;2.00;;;1.57;;
4122;SDS011;2075;51.062;6.920;2023-07-31T11:24:41;1.80;;;1.70;;
4122;SDS011;2075;51.062;6.920;2023-07-31T11:27:28;1.57;;;1.47;;
4122;SDS011;2075;51.062;6.920;2023-07-31T11:30:14;1.33;;;1.30;;
4122;SDS011;2075;51.062;6.920;2023-07-31T11:33:00;1.57;;;1.50;;
4122;SDS011;2075;51.062;6.920;2023-07-31T11:35:48;1.90;;;1.80;;
4122;SDS011;2075;51.062;6.920;2023-07-31T11:38:34;1.90;;;1.80;;
4122;SDS011;2075;51.062;6.920;2023-07-31T11:41:19;1.77;;;1.23;;
4122;SDS011;2075;51.062;6.920;2023-07-31T11:44:06;1.57;;;1.20;;
4122;SDS011;2075;51.062;6.920;2023-07-31T11:46:52;4.23;;;1.17;;
4122;SDS011;2075;51.062;6.920;2023-07-31T11:49:37;1.47;;;1.37;;
4122;SDS011;2075;51.062;6.920;2023-07-31T11:52:23;3.10;;;1.10;;
4122;SDS011;2075;51.062;6.920;2023-07-31T11:55:09;1.40;;;1.40;;
4122;SDS011;2075;51.062;6.920;2023-07-31T11:57:57;1.10;;;1.10;;
4122;SDS011;2075;51.062;6.920;2023-07-31T12:00:46;1.70;;;1.60;;
4122;SDS011;2075;51.062;6.920;2023-07-31T12:03:32;2.93;;;1.87;;
4122;SDS011;2075;51.062;6.920;2023-07-31T12:06:18;1.40;;;1.30;;
4122;SDS011;2075;51.062;6.920;2023-07-31T12:09:04;2.20;;;1.63;;
4122;SDS011;2075;51.062;6.920;2023-07-31T12:11:50;2.03;;;1.93;;
4122;SDS011;2075;51.062;6.920;2023-07-31T12:14:36;1.37;;;1.30;;
4122;SDS011;2075;51.062;6.920;2023-07-31T12:17:28;2.40;;;1.70;;
4122;SDS011;2075;51.062;6.920;2023-07-31T12:20:13;2.47;;;1.43;;
4122;SDS011;2075;51.062;6.920;2023-07-31T12:22:59;1.90;;;1.80;;
4122;SDS011;2075;51.062;6.920;2023-07-31T12:25:44;2.00;;;1.90;;
4122;SDS011;2075;51.062;6.920;2023-07-31T12:28:30;3.57;;;2.80;;
4122;SDS011;2075;51.062;6.920;2023-07-31T12:31:20;2.37;;;2.20;;
4122;SDS011;2075;51.062;6.920;2023-07-31T12:34:15;2.00;;;1.90;;
4122;SDS011;2075;51.062;6.920;2023-07-31T12:37:02;2.57;;;2.33;;
4122;SDS011;2075;51.062;6.920;2023-07-31T12:39:49;2.40;;;2.20;;
4122;SDS011;2075;51.062;6.920;2023-07-31T12:42:34;2.27;;;2.13;;
4122;SDS011;2075;51.062;6.920;2023-07-31T12:45:20;4.23;;;2.63;;
4122;SDS011;2075;51.062;6.920;2023-07-31T12:48:07;2.57;;;2.43;;
4122;SDS011;2075;51.062;6.920;2023-07-31T12:50:54;2.50;;;2.30;;
4122;SDS011;2075;51.062;6.920;2023-07-31T12:53:41;5.00;;;2.97;;
4122;SDS011;2075;51.062;6.920;2023-07-31T12:56:27;3.10;;;2.70;;
4122;SDS011;2075;51.062;6.920;2023-07-31T12:59:13;4.63;;;2.97;;
4122;SDS011;2075;51.062;6.920;2023-07-31T13:01:59;3.93;;;3.40;;
4122;SDS011;2075;51.062;6.920;2023-07-31T13:04:44;5.53;;;3.17;;
4122;SDS011;2075;51.062;6.920;2023-07-31T13:07:32;3.83;;;2.50;;
4122;SDS011;2075;51.062;6.920;2023-07-31T13:10:19;3.27;;;2.70;;
4122;SDS011;2075;51.062;6.920;2023-07-31T13:13:04;3.20;;;2.60;;
4122;SDS011;2075;51.062;6.920;2023-07-31T13:15:50;3.10;;;2.70;;
4122;SDS011;2075;51.062;6.920;2023-07-31T13:18:36;3.60;;;3.30;;
4122;SDS011;2075;51.062;6.920;2023-07-31T13:21:22;3.33;;;3.03;;
4122;SDS011;2075;51.062;6.920;2023-07-31T13:24:09;3.43;;;3.00;;
4122;SDS011;2075;51.062;6.920;2023-07-31T13:26:55;3.17;;;2.80;;
4122;SDS011;2075;51.062;6.920;2023-07-31T13:29:42;3.33;;;2.60;;
4122;SDS011;2075;51.062;6.920;2023-07-31T13:32:29;4.93;;;2.80;;
4122;SDS011;2075;51.062;6.920;2023-07-31T13:35:17;5.10;;;2.63;;
4122;SDS011;2075;51.062;6.920;2023-07-31T13:38:15;2.93;;;2.63;;
4122;SDS011;2075;51.062;6.920;2023-07-31T13:41:03;3.33;;;2.70;;
4122;SDS011;2075;51.062;6.920;2023-07-31T13:43:49;2.53;;;2.30;;
4122;SDS011;2075;51.062;6.920;2023-07-31T13:46:35;4.70;;;2.30;;
4122;SDS011;2075;51.062;6.920;2023-07-31T13:49:22;2.93;;;2.47;;
4122;SDS011;2075;51.062;6.920;2023-07-31T13:52:07;3.23;;;2.93;;
4122;SDS011;2075;51.062;6.920;2023-07-31T13:54:53;3.50;;;3.17;;
4122;SDS011;2075;51.062;6.920;2023-07-31T13:57:40;3.23;;;2.40;;
4122;SDS011;2075;51.062;6.920;2023-07-31T14:00:27;2.73;;;2.43;;
4122;SDS011;2075;51.062;6.920;2023-07-31T14:03:13;2.60;;;2.33;;
4122;SDS011;2075;51.062;6.920;2023-07-31T14:06:00;2.57;;;2.40;;
4122;SDS011;2075;51.062;6.920;2023-07-31T14:08:46;3.20;;;2.80;;
4122;SDS011;2075;51.062;6.920;2023-07-31T14:11:32;3.20;;;2.67;;
4122;SDS011;2075;51.062;6.920;2023-07-31T14:14:19;2.20;;;2.10;;
4122;SDS011;2075;51.062;6.920;2023-07-31T14:17:05;2.33;;;2.23;;
4122;SDS011;2075;51.062;6.920;2023-07-31T14:19:50;2.40;;;2.20;;
4122;SDS011;2075;51.062;6.920;2023-07-31T14:22:36;4.80;;;2.63;;
4122;SDS011;2075;51.062;6.920;2023-07-31T14:25:22;2.40;;;2.30;;
4122;SDS011;2075;51.062;6.920;2023-07-31T14:28:08;2.83;;;2.30;;
4122;SDS011;2075;51.062;6.920;2023-07-31T14:30:56;2.83;;;2.63;;
4122;SDS011;2075;51.062;6.920;2023-07-31T14:33:42;2.40;;;2.20;;
4122;SDS011;2075;51.062;6.920;2023-07-31T14:36:28;2.53;;;2.33;;
4122;SDS011;2075;51.062;6.920;2023-07-31T14:39:14;2.77;;;2.50;;
4122;SDS011;2075;51.062;6.920;2023-07-31T14:42:00;3.00;;;2.80;;
4122;SDS011;2075;51.062;6.920;2023-07-31T14:44:46;4.97;;;2.60;;
4122;SDS011;2075;51.062;6.920;2023-07-31T14:47:34;2.80;;;2.70;;
4122;SDS011;2075;51.062;6.920;2023-07-31T14:50:19;4.10;;;3.00;;
4122;SDS011;2075;51.062;6.920;2023-07-31T14:53:06;3.97;;;3.40;;
4122;SDS011;2075;51.062;6.920;2023-07-31T14:55:51;3.67;;;2.77;;
4122;SDS011;2075;51.062;6.920;2023-07-31T14:58:37;8.63;;;3.97;;
4122;SDS011;2075;51.062;6.920;2023-07-31T15:01:22;3.60;;;3.30;;
4122;SDS011;2075;51.062;6.920;2023-07-31T15:04:09;4.87;;;3.17;;
4122;SDS011;2075;51.062;6.920;2023-07-31T15:06:55;5.70;;;3.17;;
4122;SDS011;2075;51.062;6.920;2023-07-31T15:09:41;3.57;;;3.23;;
4122;SDS011;2075;51.062;6.920;2023-07-31T15:12:27;7.10;;;3.40;;
4122;SDS011;2075;51.062;6.920;2023-07-31T15:15:16;5.90;;;4.33;;
4122;SDS011;2075;51.062;6.920;2023-07-31T15:18:02;3.90;;;3.30;;
4122;SDS011;2075;51.062;6.920;2023-07-31T15:20:49;3.73;;;3.43;;
4122;SDS011;2075;51.062;6.920;2023-07-31T15:23:35;5.80;;;3.90;;
4122;SDS011;2075;51.062;6.920;2023-07-31T15:26:22;4.30;;;3.90;;
4122;SDS011;2075;51.062;6.920;2023-07-31T15:29:10;6.00;;;4.03;;
4122;SDS011;2075;51.062;6.920;2023-07-31T15:32:01;7.17;;;3.50;;
4122;SDS011;2075;51.062;6.920;2023-07-31T15:34:51;6.60;;;3.73;;
4122;SDS011;2075;51.062;6.920;2023-07-31T15:37:40;6.30;;;3.85;;
4122;SDS011;2075;51.062;6.920;2023-07-31T15:40:26;6.90;;;3.87;;
4122;SDS011;2075;51.062;6.920;2023-07-31T15:43:12;3.43;;;3.10;;
4122;SDS011;2075;51.062;6.920;2023-07-31T15:45:58;4.77;;;3.53;;
4122;SDS011;2075;51.062;6.920;2023-07-31T15:48:44;8.20;;;3.60;;
4122;SDS011;2075;51.062;6.920;2023-07-31T15:51:30;3.87;;;3.40;;
4122;SDS011;2075;51.062;6.920;2023-07-31T15:54:17;6.20;;;4.27;;
4122;SDS011;2075;51.062;6.920;2023-07-31T15:57:03;4.57;;;4.17;;
4122;SDS011;2075;51.062;6.920;2023-07-31T15:59:48;4.90;;;3.90;;
4122;SDS011;2075;51.062;6.920;2023-07-31T16:02:34;4.53;;;3.77;;
4122;SDS011;2075;51.062;6.920;2023-07-31T16:05:20;5.03;;;4.30;;
4122;SDS011;2075;51.062;6.920;2023-07-31T16:08:05;4.73;;;4.20;;
4122;SDS011;2075;51.062;6.920;2023-07-31T16:10:54;5.03;;;4.30;;
4122;SDS011;2075;51.062;6.920;2023-07-31T16:13:40;4.80;;;3.90;;
4122;SDS011;2075;51.062;6.920;2023-07-31T16:16:25;4.20;;;3.80;;
4122;SDS011;2075;51.062;6.920;2023-07-31T16:19:11;4.20;;;3.80;;
4122;SDS011;2075;51.062;6.920;2023-07-31T16:21:57;9.20;;;3.87;;
4122;SDS011;2075;51.062;6.920;2023-07-31T16:24:42;4.40;;;3.97;;
4122;SDS011;2075;51.062;6.920;2023-07-31T16:27:29;4.20;;;3.83;;
4122;SDS011;2075;51.062;6.920;2023-07-31T16:30:15;4.47;;;3.43;;
4122;SDS011;2075;51.062;6.920;2023-07-31T16:33:00;7.27;;;4.70;;
4122;SDS011;2075;51.062;6.920;2023-07-31T16:35:45;8.13;;;4.20;;
4122;SDS011;2075;51.062;6.920;2023-07-31T16:38:31;4.50;;;4.07;;
4122;SDS011;2075;51.062;6.920;2023-07-31T16:41:17;4.97;;;3.80;;
4122;SDS011;2075;51.062;6.920;2023-07-31T16:44:04;7.07;;;4.40;;
4122;SDS011;2075;51.062;6.920;2023-07-31T16:46:49;4.77;;;4.27;;
4122;SDS011;2075;51.062;6.920;2023-07-31T16:49:35;4.77;;;3.93;;
4122;SDS011;2075;51.062;6.920;2023-07-31T16:52:20;4.23;;;3.80;;
4122;SDS011;2075;51.062;6.920;2023-07-31T16:55:06;4.07;;;3.60;;
4122;SDS011;2075;51.062;6.920;2023-07-31T16:57:52;4.77;;;3.93;;
4122;SDS011;2075;51.062;6.920;2023-07-31T17:00:40;4.20;;;3.43;;
4122;SDS011;2075;51.062;6.920;2023-07-31T17:03:25;4.83;;;4.20;;
4122;SDS011;2075;51.062;6.920;2023-07-31T17:06:11;4.30;;;3.90;;
4122;SDS011;2075;51.062;6.920;2023-07-31T17:08:56;5.70;;;4.17;;
4122;SDS011;2075;51.062;6.920;2023-07-31T17:11:42;2.93;;;2.73;;
4122;SDS011;2075;51.062;6.920;2023-07-31T17:14:27;5.57;;;3.10;;